Eeklo, Belgium
Current Conditions -  °F | °C
As of 3:25 PM on Tuesday 21 Oct 2014 (Local Time) from EHFS Reporting Station
Light Rain Light Rain  
Wind Chill: 12°   Ceiling: 4000
Heat Index: 12°   Visibility: 4mi
Dew Point:   Wind: 31mph
Humidity: 77%   Direction: 280°W
Pressure: 29.56"   Gusts: 47mph
Location:  51.19°N, 3.56°E
Report Text: EHFS 211325Z AUTO 28027G41KT 250V320 6000 -RA FEW027///SCT032/// BKN040/// 12/08 Q1001
Loading
Personal Weather Stations






























Interactive Weather Map
Tropical Storm Tracking
New forecast layout! Learn more

10-Day Weather Forecast

Advertisements
Track Severe Weather on mobile